createdAt,value
2024-05-09T00:00:52.882Z,97866.25
2024-05-09T00:03:23.995Z,97870.56
2024-05-09T00:05:54.569Z,97888.81
2024-05-09T00:08:26.100Z,97886.53
2024-05-09T00:10:56.856Z,97883.81
2024-05-09T00:13:27.969Z,97880.16
2024-05-09T00:15:58.846Z,97880.81
2024-05-09T00:18:30.140Z,97888.31
2024-05-09T00:21:01.468Z,97892.63
2024-05-09T00:23:32.799Z,97886.09
2024-05-09T00:26:03.543Z,97891.03
2024-05-09T00:28:34.402Z,97891.38
2024-05-09T00:31:05.717Z,97889.47
2024-05-09T00:33:36.848Z,97901.91
2024-05-09T00:36:08.894Z,97898.56
2024-05-09T00:38:39.773Z,97900.16
2024-05-09T00:41:10.647Z,97902.09
2024-05-09T00:43:42.492Z,97907.84
2024-05-09T00:46:13.326Z,97906.56
2024-05-09T00:48:44.617Z,97909.63
2024-05-09T00:51:15.505Z,97913.16
2024-05-09T00:53:47.736Z,97913.59
2024-05-09T00:56:20.700Z,97911.84
2024-05-09T00:58:53.574Z,97926.09
2024-05-09T01:01:25.928Z,97910.09
2024-05-09T01:03:57.397Z,97931.53
2024-05-09T01:06:28.210Z,97932.66
2024-05-09T01:08:59.379Z,97940.19
2024-05-09T01:11:39.493Z,97948.16
2024-05-09T01:14:10.683Z,97945.44
2024-05-09T01:16:41.778Z,97952.19
2024-05-09T01:19:25.360Z,97953.44
2024-05-09T01:21:56.419Z,97958.25
2024-05-09T01:24:27.359Z,97956.97
2024-05-09T01:26:58.288Z,97959.53
2024-05-09T01:29:29.241Z,97965.59
2024-05-09T01:32:01.443Z,97975.84
2024-05-09T01:34:32.776Z,97980.31
2024-05-09T01:37:03.749Z,97978.53
2024-05-09T01:39:34.577Z,97981.09
2024-05-09T01:42:05.598Z,97987.03
2024-05-09T01:44:36.732Z,97988.63
2024-05-09T01:47:07.585Z,97996.44
2024-05-09T01:49:39.605Z,97999.81
2024-05-09T01:52:10.435Z,98001.75
2024-05-09T01:54:41.965Z,98005.81
2024-05-09T01:57:12.906Z,98010.13
2024-05-09T01:59:43.753Z,98008.63
2024-05-09T02:02:15.586Z,98020.00
2024-05-09T02:04:49.750Z,98014.16
2024-05-09T02:07:20.724Z,98016.41
2024-05-09T02:09:55.197Z,98018.69
2024-05-09T02:12:25.954Z,98018.28
2024-05-09T02:14:57.276Z,98026.56
2024-05-09T02:17:31.075Z,98036.34
2024-05-09T02:20:02.738Z,98033.09
2024-05-09T02:22:33.425Z,98038.19
2024-05-09T02:25:04.589Z,98036.81
2024-05-09T02:27:35.197Z,98043.56
2024-05-09T02:30:15.130Z,98049.25
2024-05-09T02:32:53.435Z,98058.81
2024-05-09T02:35:24.813Z,98050.06
2024-05-09T02:37:55.599Z,98068.63
2024-05-09T02:40:35.497Z,98063.72
2024-05-09T02:43:11.177Z,98071.88
2024-05-09T02:45:43.678Z,98068.00
2024-05-09T02:48:14.854Z,98064.09
2024-05-09T02:50:46.345Z,98062.03
2024-05-09T02:53:17.497Z,98060.00
2024-05-09T02:55:49.040Z,98068.44
2024-05-09T02:58:19.676Z,98066.59
2024-05-09T03:00:51.498Z,98063.84
2024-05-09T03:03:22.534Z,98065.41
2024-05-09T03:05:53.949Z,98064.25
2024-05-09T03:08:25.056Z,98064.25
2024-05-09T03:10:56.248Z,98054.94
2024-05-09T03:13:26.774Z,98056.22
2024-05-09T03:15:57.883Z,98053.88
2024-05-09T03:18:28.855Z,98059.25
2024-05-09T03:20:59.788Z,98057.44
2024-05-09T03:23:30.669Z,98056.28
2024-05-09T03:26:01.729Z,98045.94
2024-05-09T03:28:32.570Z,98060.84
2024-05-09T03:31:03.341Z,98065.66
2024-05-09T03:33:34.564Z,98064.97
2024-05-09T03:36:09.762Z,98062.47
2024-05-09T03:38:42.561Z,98054.47
2024-05-09T03:41:14.735Z,98064.13
2024-05-09T03:43:46.940Z,98063.31
2024-05-09T03:46:17.735Z,98061.69
2024-05-09T03:48:49.296Z,98064.44
2024-05-09T03:51:20.063Z,98065.03
2024-05-09T03:53:51.144Z,98067.75
2024-05-09T03:56:22.088Z,98058.94
2024-05-09T03:58:53.462Z,98057.84
2024-05-09T04:01:27.151Z,98052.03
2024-05-09T04:03:58.849Z,98058.16
2024-05-09T04:06:29.705Z,98048.22
2024-05-09T04:09:00.752Z,98050.69
2024-05-09T04:11:31.819Z,98044.56
2024-05-09T04:14:03.348Z,98046.00
2024-05-09T04:16:34.166Z,98047.13
2024-05-09T04:19:05.525Z,98046.38
2024-05-09T04:21:36.377Z,98049.78
2024-05-09T04:24:07.696Z,98057.28
2024-05-09T04:26:38.545Z,98050.03
2024-05-09T04:29:09.770Z,98063.03
2024-05-09T04:31:40.775Z,98061.78
2024-05-09T04:34:12.341Z,98061.88
2024-05-09T04:36:44.480Z,98061.00
2024-05-09T04:39:16.016Z,98058.44
2024-05-09T04:41:46.800Z,98065.16
2024-05-09T04:44:17.886Z,98070.13
2024-05-09T04:46:51.008Z,98076.13
2024-05-09T04:49:24.923Z,98081.59
2024-05-09T04:51:55.969Z,98081.91
2024-05-09T04:54:34.206Z,98072.41
2024-05-09T04:57:07.430Z,98067.59
2024-05-09T04:59:38.545Z,98060.34
2024-05-09T05:02:10.287Z,98060.41
2024-05-09T05:04:41.339Z,98066.59
2024-05-09T05:07:12.916Z,98070.19
2024-05-09T05:09:43.749Z,98068.91
2024-05-09T05:12:33.120Z,98081.94
2024-05-09T05:15:04.011Z,98080.13
2024-05-09T05:17:35.982Z,98075.22
2024-05-09T05:20:08.551Z,98085.13
2024-05-09T05:22:39.767Z,98077.47
2024-05-09T05:25:10.602Z,98075.22
2024-05-09T05:27:42.337Z,98072.56
2024-05-09T05:30:21.040Z,98079.13
2024-05-09T05:32:56.582Z,98076.94
2024-05-09T05:35:28.580Z,98066.78
2024-05-09T05:38:00.068Z,98075.22
2024-05-09T05:40:36.777Z,98068.34
2024-05-09T05:43:12.947Z,98073.28
2024-05-09T05:45:44.177Z,98066.72
2024-05-09T05:48:19.466Z,98067.13
2024-05-09T05:50:50.675Z,98063.56
2024-05-09T05:53:21.740Z,98067.81
2024-05-09T05:55:53.759Z,98065.25
2024-05-09T05:58:25.027Z,98071.38
2024-05-09T06:00:56.154Z,98060.59
2024-05-09T06:03:28.025Z,98056.63
2024-05-09T06:05:59.089Z,98057.09
2024-05-09T06:08:30.700Z,98062.16
2024-05-09T06:11:02.002Z,98058.75
2024-05-09T06:13:33.117Z,98055.19
2024-05-09T06:16:06.544Z,98053.16
2024-05-09T06:18:37.840Z,98052.44
2024-05-09T06:21:09.412Z,98051.94
2024-05-09T06:23:51.165Z,98040.09
2024-05-09T06:26:22.184Z,98042.03
2024-05-09T06:28:53.695Z,98037.59
2024-05-09T06:31:24.481Z,98039.66
2024-05-09T06:33:56.247Z,98036.47
2024-05-09T06:36:27.147Z,98034.03
2024-05-09T06:38:58.518Z,98032.44
2024-05-09T06:41:33.246Z,98019.66
2024-05-09T06:44:06.223Z,98028.06
2024-05-09T06:46:42.026Z,98023.81
2024-05-09T06:49:15.599Z,98029.38
2024-05-09T06:51:47.744Z,98012.28
2024-05-09T06:54:20.752Z,98023.50
2024-05-09T06:56:51.537Z,98016.63
2024-05-09T06:59:22.798Z,98019.47
2024-05-09T07:01:54.655Z,98009.50
2024-05-09T07:04:26.678Z,97997.00
2024-05-09T07:06:58.256Z,98001.84
2024-05-09T07:09:29.894Z,97999.28
2024-05-09T07:12:01.451Z,97987.81
2024-05-09T07:14:33.949Z,97991.38
2024-05-09T07:17:05.909Z,97996.16
2024-05-09T07:19:37.174Z,97987.94
2024-05-09T07:22:08.281Z,97983.69
2024-05-09T07:24:40.433Z,97984.38
2024-05-09T07:27:15.484Z,97983.41
2024-05-09T07:29:46.539Z,97983.41
2024-05-09T07:32:17.771Z,97985.84
2024-05-09T07:34:48.846Z,97969.72
2024-05-09T07:37:19.963Z,97966.19
2024-05-09T07:39:50.732Z,97967.28
2024-05-09T07:42:21.903Z,97961.41
2024-05-09T07:44:52.994Z,97961.78
2024-05-09T07:48:49.069Z,97966.00
2024-05-09T07:53:34.824Z,97955.81
2024-05-09T07:55:40.849Z,97957.03
2024-05-09T07:58:12.648Z,97952.72
2024-05-09T08:00:43.853Z,97952.34
2024-05-09T08:03:15.450Z,97952.69
2024-05-09T08:05:46.737Z,97951.44
2024-05-09T08:08:17.824Z,97943.63
2024-05-09T08:10:48.885Z,97944.88
2024-05-09T08:13:20.526Z,97940.41
2024-05-09T08:15:56.388Z,97943.97
2024-05-09T08:18:27.945Z,97942.81
2024-05-09T08:21:03.219Z,97934.47
2024-05-09T08:23:34.487Z,97933.69
2024-05-09T08:26:05.275Z,97929.72
2024-05-09T08:28:38.638Z,97931.63
2024-05-09T08:31:09.507Z,97943.34
2024-05-09T08:33:49.994Z,97927.28
2024-05-09T08:36:21.834Z,97922.19
2024-05-09T08:38:53.088Z,97922.44
2024-05-09T08:41:24.306Z,97908.59
2024-05-09T08:44:06.421Z,97915.34
2024-05-09T08:46:39.180Z,97906.66
2024-05-09T08:49:10.550Z,97900.16
2024-05-09T08:51:41.608Z,97897.03
2024-05-09T08:54:13.014Z,97895.84
2024-05-09T08:56:50.384Z,97889.59
2024-05-09T08:59:30.750Z,97884.06
2024-05-09T09:02:02.100Z,97882.81
2024-05-09T09:04:38.097Z,97880.03
2024-05-09T09:07:09.977Z,97874.16
2024-05-09T09:09:48.087Z,97873.72
2024-05-09T09:12:19.460Z,97866.16
2024-05-09T09:14:50.771Z,97863.06
2024-05-09T09:17:21.771Z,97857.97
2024-05-09T09:19:53.519Z,97855.25
2024-05-09T09:22:24.275Z,97852.09
2024-05-09T09:24:55.445Z,97846.16
2024-05-09T09:27:26.533Z,97837.06
2024-05-09T09:30:00.122Z,97833.44
2024-05-09T09:32:31.761Z,97827.44
2024-05-09T09:35:03.261Z,97827.47
2024-05-09T09:37:36.627Z,97821.97
2024-05-09T09:40:13.326Z,97816.47
2024-05-09T09:42:46.307Z,97811.75
2024-05-09T09:45:18.924Z,97810.63
2024-05-09T09:47:51.200Z,97811.81
2024-05-09T09:50:27.970Z,97804.78
2024-05-09T09:53:07.191Z,97796.97
2024-05-09T09:55:39.869Z,97793.38
2024-05-09T09:58:14.304Z,97787.88
2024-05-09T10:00:49.206Z,97789.03
2024-05-09T10:03:20.253Z,97779.56
2024-05-09T10:05:52.541Z,97776.41
2024-05-09T10:08:26.205Z,97771.34
2024-05-09T10:10:59.282Z,97766.66
2024-05-09T10:13:36.494Z,97766.28
2024-05-09T10:16:12.295Z,97755.22
2024-05-09T10:18:43.760Z,97762.28
2024-05-09T10:21:20.491Z,97761.94
2024-05-09T10:24:08.783Z,97753.72
2024-05-09T10:26:41.406Z,97754.47
2024-05-09T10:29:20.343Z,97752.94
2024-05-09T10:31:51.380Z,97745.84
2024-05-09T10:34:26.694Z,97741.53
2024-05-09T10:36:58.893Z,97743.09
2024-05-09T10:39:36.961Z,97738.78
2024-05-09T10:42:12.850Z,97734.84
2024-05-09T10:44:45.539Z,97734.41
2024-05-09T10:47:17.839Z,97739.94
2024-05-09T10:49:49.260Z,97727.66
2024-05-09T10:52:26.799Z,97732.00
2024-05-09T10:54:58.238Z,97730.84
2024-05-09T10:57:40.041Z,97732.81
2024-05-09T11:00:18.958Z,97724.84
2024-05-09T11:02:55.828Z,97718.91
2024-05-09T11:05:27.315Z,97721.25
2024-05-09T11:07:58.659Z,97710.94
2024-05-09T11:10:34.057Z,97708.50
2024-05-09T11:13:05.861Z,97706.47
2024-05-09T11:15:44.347Z,97702.09
2024-05-09T11:18:30.631Z,97704.78
2024-05-09T11:21:18.755Z,97702.72
2024-05-09T11:23:56.046Z,97708.59
2024-05-09T11:26:37.622Z,97703.44
2024-05-09T11:29:09.134Z,97700.59
2024-05-09T11:31:50.114Z,97708.88
2024-05-09T11:34:21.781Z,97706.44
2024-05-09T11:36:52.974Z,97702.13
2024-05-09T11:39:24.535Z,97699.78
2024-05-09T11:41:55.536Z,97705.59
2024-05-09T11:44:27.155Z,97700.06
2024-05-09T11:46:58.601Z,97699.66
2024-05-09T11:49:30.298Z,97706.28
2024-05-09T11:52:01.388Z,97699.97
2024-05-09T11:54:33.538Z,97705.53
2024-05-09T11:57:05.159Z,97703.50
2024-05-09T11:59:37.259Z,97707.81
2024-05-09T12:02:08.826Z,97714.00
2024-05-09T12:04:41.040Z,97713.94
2024-05-09T12:07:13.322Z,97709.94
2024-05-09T12:09:45.125Z,97705.97
2024-05-09T12:12:16.737Z,97705.47
2024-05-09T12:14:47.942Z,97699.06
2024-05-09T12:17:18.877Z,97704.53
2024-05-09T12:19:50.440Z,97695.06
2024-05-09T12:22:24.924Z,97702.00
2024-05-09T12:24:56.278Z,97693.69
2024-05-09T12:27:28.443Z,97696.75
2024-05-09T12:30:00.807Z,97695.94
2024-05-09T12:32:32.810Z,97700.59
2024-05-09T12:35:03.800Z,97693.06
2024-05-09T12:37:35.901Z,97685.13
2024-05-09T12:40:15.816Z,97686.72
2024-05-09T12:42:52.127Z,97685.09
2024-05-09T12:45:23.693Z,97685.81
2024-05-09T12:47:54.732Z,97685.34
2024-05-09T12:50:32.471Z,97681.34
2024-05-09T12:53:05.508Z,97684.09
2024-05-09T12:55:48.373Z,97690.75
2024-05-09T12:58:25.192Z,97691.44
2024-05-09T13:00:56.685Z,97685.38
2024-05-09T13:03:29.228Z,97681.78
2024-05-09T13:06:00.789Z,97687.97
2024-05-09T13:08:31.727Z,97682.38
2024-05-09T13:11:03.845Z,97681.84
2024-05-09T13:13:35.507Z,97678.94
2024-05-09T13:16:07.089Z,97677.31
2024-05-09T13:18:38.640Z,97679.50
2024-05-09T13:21:09.847Z,97677.81
2024-05-09T13:23:42.454Z,97680.00
2024-05-09T13:26:13.154Z,97681.47
2024-05-09T13:28:45.056Z,97679.75
2024-05-09T13:31:16.718Z,97681.19
2024-05-09T13:33:48.961Z,97680.63
2024-05-09T13:36:20.817Z,97679.34
2024-05-09T13:38:52.161Z,97674.88
2024-05-09T13:41:27.937Z,97681.94
2024-05-09T13:43:59.121Z,97676.75
2024-05-09T13:46:30.905Z,97673.88
2024-05-09T13:49:02.357Z,97673.38
2024-05-09T13:51:33.809Z,97674.06
2024-05-09T13:54:04.856Z,97662.88
2024-05-09T13:56:39.669Z,97664.34
2024-05-09T13:59:11.808Z,97665.78
2024-05-09T14:01:43.568Z,97663.19
2024-05-09T14:04:18.438Z,97662.69
2024-05-09T14:06:53.761Z,97668.81
2024-05-09T14:09:31.869Z,97663.63
2024-05-09T14:12:09.729Z,97665.50
2024-05-09T14:14:42.516Z,97676.63
2024-05-09T14:17:15.176Z,97674.66
2024-05-09T14:19:47.398Z,97686.78
2024-05-09T14:22:18.859Z,97685.13
2024-05-09T14:24:51.327Z,97684.59
2024-05-09T14:27:22.843Z,97680.19
2024-05-09T14:29:54.289Z,97677.78
2024-05-09T14:32:25.908Z,97679.31
2024-05-09T14:35:00.928Z,97680.66
2024-05-09T14:37:32.055Z,97686.03
2024-05-09T14:40:06.893Z,97682.78
2024-05-09T14:42:40.050Z,97683.50
2024-05-09T14:45:11.468Z,97683.41
2024-05-09T14:47:46.301Z,97680.13
2024-05-09T14:50:27.378Z,97694.53
2024-05-09T14:53:05.352Z,97689.81
2024-05-09T14:55:38.446Z,97697.16
2024-05-09T14:58:16.766Z,97701.06
2024-05-09T15:00:51.182Z,97706.06
2024-05-09T15:03:30.628Z,97714.19
2024-05-09T15:06:03.363Z,97711.63
2024-05-09T15:08:34.711Z,97712.69
2024-05-09T15:11:10.846Z,97726.72
2024-05-09T15:13:43.314Z,97730.16
2024-05-09T15:16:20.234Z,97735.97
2024-05-09T15:18:52.794Z,97741.09
2024-05-09T15:21:24.285Z,97748.84
2024-05-09T15:23:55.610Z,97741.09
2024-05-09T15:26:28.063Z,97746.50
2024-05-09T15:28:59.889Z,97752.75
2024-05-09T15:31:34.409Z,97758.22
2024-05-09T15:34:05.939Z,97770.88
2024-05-09T15:36:41.159Z,97766.97
2024-05-09T15:39:19.432Z,97773.28
2024-05-09T15:41:50.594Z,97785.53
2024-05-09T15:44:22.202Z,97789.81
2024-05-09T15:46:57.367Z,97796.34
2024-05-09T15:49:28.618Z,97795.91
2024-05-09T15:52:01.194Z,97793.63
2024-05-09T15:54:32.386Z,97801.81
2024-05-09T15:57:04.119Z,97806.16
2024-05-09T15:59:35.805Z,97808.09
2024-05-09T16:02:08.074Z,97810.16
2024-05-09T16:04:39.985Z,97803.56
2024-05-09T16:07:11.979Z,97812.41
2024-05-09T16:09:43.305Z,97802.50
2024-05-09T16:12:15.021Z,97810.25
2024-05-09T16:14:48.632Z,97805.81
2024-05-09T16:17:22.631Z,97806.16
2024-05-09T16:19:53.740Z,97809.34
2024-05-09T16:22:25.159Z,97812.91
2024-05-09T16:24:56.249Z,97804.13
2024-05-09T16:27:30.047Z,97805.19
2024-05-09T16:30:07.276Z,97808.72
2024-05-09T16:32:45.966Z,97808.25
2024-05-09T16:35:17.669Z,97813.88
2024-05-09T16:37:49.743Z,97809.34
2024-05-09T16:40:30.378Z,97817.13
2024-05-09T16:43:09.190Z,97814.03
2024-05-09T16:45:43.048Z,97817.47
2024-05-09T16:48:15.813Z,97814.41
2024-05-09T16:50:46.929Z,97802.97
2024-05-09T16:53:19.371Z,97804.47
2024-05-09T16:55:50.730Z,97802.66
2024-05-09T16:58:22.158Z,97795.84
2024-05-09T17:00:53.406Z,97796.56
2024-05-09T17:03:25.638Z,97798.34
2024-05-09T17:05:56.919Z,97796.66
2024-05-09T17:08:28.123Z,97808.16
2024-05-09T17:11:02.850Z,97809.28
2024-05-09T17:13:34.353Z,97809.91
2024-05-09T17:16:05.910Z,97813.75
2024-05-09T17:18:39.170Z,97811.25
2024-05-09T17:21:10.470Z,97801.72
2024-05-09T17:23:42.337Z,97806.03
2024-05-09T17:26:13.793Z,97809.13
2024-05-09T17:28:46.000Z,97806.41
2024-05-09T17:31:17.050Z,97810.25
2024-05-09T17:33:51.871Z,97805.13
2024-05-09T17:36:24.885Z,97803.19
2024-05-09T17:38:56.759Z,97788.63
2024-05-09T17:41:28.220Z,97784.66
2024-05-09T17:43:59.401Z,97794.47
2024-05-09T17:46:30.786Z,97797.41
2024-05-09T17:49:02.575Z,97798.06
2024-05-09T17:51:39.999Z,97811.72
2024-05-09T17:54:14.534Z,97809.94
2024-05-09T17:56:46.071Z,97816.88
2024-05-09T17:59:17.471Z,97816.41
2024-05-09T18:01:48.751Z,97809.16
2024-05-09T18:04:21.128Z,97815.53
2024-05-09T18:06:52.216Z,97812.53
2024-05-09T18:09:23.575Z,97807.66
2024-05-09T18:11:54.598Z,97810.94
2024-05-09T18:14:25.703Z,97814.59
2024-05-09T18:16:56.624Z,97812.22
2024-05-09T18:19:27.863Z,97814.81
2024-05-09T18:21:59.008Z,97810.03
2024-05-09T18:24:31.495Z,97830.00
2024-05-09T18:27:02.216Z,97842.50
2024-05-09T18:29:34.195Z,97842.25
2024-05-09T18:32:05.040Z,97842.38
2024-05-09T18:34:36.231Z,97837.03
2024-05-09T18:37:07.441Z,97845.09
2024-05-09T18:39:38.637Z,97843.75
2024-05-09T18:42:10.296Z,97848.75
2024-05-09T18:44:41.049Z,97850.09
2024-05-09T18:47:12.944Z,97847.72
2024-05-09T18:49:44.683Z,97848.31
2024-05-09T18:52:16.116Z,97841.81
2024-05-09T18:54:46.970Z,97835.41
2024-05-09T18:57:17.537Z,97830.28
2024-05-09T18:59:48.333Z,97838.25
2024-05-09T19:02:19.479Z,97839.50
2024-05-09T19:04:54.652Z,97843.75
2024-05-09T19:07:25.745Z,97837.38
2024-05-09T19:09:56.610Z,97821.00
2024-05-09T19:12:27.443Z,97814.34
2024-05-09T19:14:58.310Z,97817.88
2024-05-09T19:17:31.363Z,97824.84
2024-05-09T19:20:02.829Z,97825.75
2024-05-09T19:22:34.134Z,97823.34
2024-05-09T19:25:05.282Z,97824.28
2024-05-09T19:27:36.057Z,97828.47
2024-05-09T19:30:17.392Z,97819.03
2024-05-09T19:32:55.192Z,97826.78
2024-05-09T19:35:26.796Z,97828.03
2024-05-09T19:37:57.532Z,97827.25
2024-05-09T19:40:32.078Z,97830.63
2024-05-09T19:43:05.956Z,97818.47
2024-05-09T19:45:37.668Z,97813.00
2024-05-09T19:48:09.133Z,97822.81
2024-05-09T19:50:43.615Z,97817.66
2024-05-09T19:53:15.963Z,97827.69
2024-05-09T19:55:46.845Z,97825.41
2024-05-09T19:58:17.940Z,97823.34
2024-05-09T20:00:49.543Z,97821.50
2024-05-09T20:03:20.855Z,97829.81
2024-05-09T20:05:51.712Z,97847.53
2024-05-09T20:08:22.473Z,97845.38
2024-05-09T20:10:53.436Z,97850.72
2024-05-09T20:13:24.557Z,97849.91
2024-05-09T20:15:55.485Z,97841.47
2024-05-09T20:18:26.477Z,97841.81
2024-05-09T20:20:57.868Z,97832.56
2024-05-09T20:23:28.756Z,97845.44
2024-05-09T20:26:00.267Z,97844.03
2024-05-09T20:28:31.744Z,97832.22
2024-05-09T20:31:04.811Z,97824.13
2024-05-09T20:33:35.442Z,97822.38
2024-05-09T20:36:07.719Z,97826.91
2024-05-09T20:38:38.288Z,97825.16
2024-05-09T20:41:09.137Z,97824.03
2024-05-09T20:43:39.915Z,97819.91
2024-05-09T20:46:11.062Z,97824.25
2024-05-09T20:48:42.113Z,97819.59
2024-05-09T20:51:13.152Z,97822.66
2024-05-09T20:53:44.156Z,97818.00
2024-05-09T20:56:14.723Z,97810.63
2024-05-09T20:58:49.286Z,97811.84
2024-05-09T21:01:21.675Z,97814.06
2024-05-09T21:03:52.835Z,97813.09
2024-05-09T21:06:23.877Z,97810.25
2024-05-09T21:08:55.664Z,97817.28
2024-05-09T21:11:26.664Z,97807.06
2024-05-09T21:13:57.580Z,97803.53
2024-05-09T21:16:28.343Z,97793.31
2024-05-09T21:18:59.572Z,97794.09
2024-05-09T21:21:30.141Z,97790.09
2024-05-09T21:24:01.746Z,97783.63
2024-05-09T21:26:32.310Z,97787.84
2024-05-09T21:29:03.111Z,97792.75
2024-05-09T21:31:34.079Z,97793.09
2024-05-09T21:34:05.076Z,97801.59
2024-05-09T21:36:35.774Z,97804.66
2024-05-09T21:39:06.566Z,97813.31
2024-05-09T21:41:37.290Z,97804.22
2024-05-09T21:44:08.519Z,97815.56
2024-05-09T21:46:39.490Z,97806.25
2024-05-09T21:49:10.391Z,97809.19
2024-05-09T21:51:41.314Z,97803.25
2024-05-09T21:54:12.263Z,97810.34
2024-05-09T21:56:43.207Z,97813.53
2024-05-09T21:59:13.646Z,97817.09
2024-05-09T22:01:44.532Z,97824.13
2024-05-09T22:04:15.514Z,97825.41
2024-05-09T22:06:46.575Z,97839.41
2024-05-09T22:09:17.867Z,97838.59
2024-05-09T22:11:51.418Z,97842.34
2024-05-09T22:14:23.349Z,97839.47
2024-05-09T22:16:54.214Z,97838.22
2024-05-09T22:19:25.117Z,97836.34
2024-05-09T22:21:56.928Z,97837.28
2024-05-09T22:24:27.676Z,97851.25
2024-05-09T22:26:58.726Z,97852.72
2024-05-09T22:29:29.373Z,97860.31
2024-05-09T22:32:00.277Z,97863.56
2024-05-09T22:34:31.318Z,97864.69
2024-05-09T22:37:02.370Z,97867.88
2024-05-09T22:39:33.499Z,97867.56
2024-05-09T22:42:04.202Z,97872.41
2024-05-09T22:44:35.613Z,97876.91
2024-05-09T22:47:07.010Z,97880.31
2024-05-09T22:49:37.847Z,97889.81
2024-05-09T22:52:09.497Z,97901.06
2024-05-09T22:54:40.289Z,97917.72
2024-05-09T22:57:11.725Z,97925.44
2024-05-09T22:59:42.488Z,97917.88
2024-05-09T23:02:13.544Z,97927.06
2024-05-09T23:04:44.529Z,97937.50
2024-05-09T23:07:15.590Z,97932.38
2024-05-09T23:09:50.097Z,97938.81
2024-05-09T23:12:21.015Z,97938.53
2024-05-09T23:14:51.831Z,97932.78
2024-05-09T23:17:22.800Z,97942.41
2024-05-09T23:19:53.652Z,97943.03
2024-05-09T23:22:24.741Z,97956.38
2024-05-09T23:24:55.840Z,97949.31
2024-05-09T23:27:27.707Z,97950.13
2024-05-09T23:29:58.903Z,97960.91
2024-05-09T23:32:30.000Z,97960.78
2024-05-09T23:35:01.742Z,97947.28
2024-05-09T23:37:32.745Z,97970.72
2024-05-09T23:40:06.891Z,97971.16
2024-05-09T23:42:38.050Z,97971.00
2024-05-09T23:45:09.715Z,97971.81
2024-05-09T23:47:40.817Z,97980.94
2024-05-09T23:50:16.918Z,97984.47
2024-05-09T23:52:54.431Z,97982.88
2024-05-09T23:55:25.566Z,97992.66
2024-05-09T23:57:56.479Z,97980.81
